createdAt,value
2023-08-10T00:00:42.191Z,4.50
2023-08-10T00:03:10.236Z,4.33
2023-08-10T00:05:39.321Z,4.70
2023-08-10T00:08:07.244Z,4.20
2023-08-10T00:10:35.055Z,4.00
2023-08-10T00:13:04.067Z,4.10
2023-08-10T00:15:31.911Z,3.90
2023-08-10T00:17:59.748Z,4.00
2023-08-10T00:20:27.458Z,3.70
2023-08-10T00:22:55.065Z,4.07
2023-08-10T00:25:22.771Z,3.63
2023-08-10T00:27:50.995Z,3.87
2023-08-10T00:30:20.780Z,4.20
2023-08-10T00:32:48.441Z,4.00
2023-08-10T00:35:21.039Z,3.97
2023-08-10T00:37:50.214Z,4.00
2023-08-10T00:40:18.557Z,4.40
2023-08-10T00:42:46.272Z,3.70
2023-08-10T00:45:14.311Z,4.47
2023-08-10T00:47:43.441Z,4.70
2023-08-10T00:50:12.221Z,4.47
2023-08-10T00:52:40.002Z,3.90
2023-08-10T00:55:08.329Z,3.43
2023-08-10T00:57:36.311Z,3.57
2023-08-10T01:00:06.791Z,4.03
2023-08-10T01:02:34.585Z,3.70
2023-08-10T01:05:04.305Z,3.40
2023-08-10T01:07:39.720Z,3.27
2023-08-10T01:10:10.771Z,2.80
2023-08-10T01:12:40.841Z,3.00
2023-08-10T01:15:14.760Z,3.43
2023-08-10T01:17:53.920Z,3.53
2023-08-10T01:20:23.620Z,3.27
2023-08-10T01:22:56.292Z,3.03
2023-08-10T01:25:26.458Z,3.13
2023-08-10T01:27:54.428Z,3.37
2023-08-10T01:30:22.205Z,2.87
2023-08-10T01:32:50.005Z,2.63
2023-08-10T01:35:17.696Z,2.83
2023-08-10T01:37:45.354Z,3.07
2023-08-10T01:40:14.563Z,2.57
2023-08-10T01:42:44.714Z,2.27
2023-08-10T01:45:13.901Z,2.37
2023-08-10T01:47:44.708Z,2.63
2023-08-10T01:50:12.640Z,2.60
2023-08-10T01:52:46.135Z,2.43
2023-08-10T01:55:14.666Z,2.13
2023-08-10T01:57:43.611Z,2.07
2023-08-10T02:00:13.429Z,2.23
2023-08-10T02:02:41.320Z,2.20
2023-08-10T02:05:09.621Z,2.40
2023-08-10T02:07:37.231Z,2.00
2023-08-10T02:10:05.340Z,1.93
2023-08-10T02:12:33.130Z,2.20
2023-08-10T02:15:02.210Z,2.37
2023-08-10T02:17:36.580Z,2.00
2023-08-10T02:20:13.148Z,2.30
2023-08-10T02:22:43.331Z,2.03
2023-08-10T02:25:11.565Z,2.30
2023-08-10T02:27:40.335Z,2.70
2023-08-10T02:30:10.950Z,2.63
2023-08-10T02:32:39.196Z,2.20
2023-08-10T02:35:07.747Z,2.60
2023-08-10T02:37:35.493Z,2.13
2023-08-10T02:40:03.923Z,2.20
2023-08-10T02:42:31.702Z,2.53
2023-08-10T02:44:59.667Z,2.47
2023-08-10T02:47:28.807Z,2.70
2023-08-10T02:49:56.466Z,2.10
2023-08-10T02:52:24.141Z,2.30
2023-08-10T02:54:51.779Z,2.40
2023-08-10T02:57:19.445Z,2.03
2023-08-10T02:59:47.341Z,2.07
2023-08-10T03:02:17.001Z,2.40
2023-08-10T03:04:46.058Z,2.37
2023-08-10T03:07:13.826Z,2.60
2023-08-10T03:09:42.787Z,2.60
2023-08-10T03:12:10.694Z,2.77
2023-08-10T03:14:39.894Z,2.70
2023-08-10T03:17:07.750Z,3.80
2023-08-10T03:19:35.656Z,2.73
2023-08-10T03:22:05.099Z,3.70
2023-08-10T03:24:33.129Z,3.33
2023-08-10T03:27:00.895Z,2.60
2023-08-10T03:29:28.493Z,3.10
2023-08-10T03:31:56.373Z,3.60
2023-08-10T03:34:23.998Z,3.30
2023-08-10T03:36:52.275Z,3.20
2023-08-10T03:39:21.383Z,3.40
2023-08-10T03:41:48.974Z,3.53
2023-08-10T03:44:16.604Z,3.70
2023-08-10T03:46:44.269Z,3.53
2023-08-10T03:49:11.918Z,3.90
2023-08-10T03:51:39.567Z,5.03
2023-08-10T03:54:07.216Z,5.10
2023-08-10T03:56:36.171Z,5.30
2023-08-10T03:59:03.821Z,4.97
2023-08-10T04:01:31.897Z,4.03
2023-08-10T04:04:00.940Z,5.90
2023-08-10T04:06:29.047Z,5.30
2023-08-10T04:08:56.706Z,5.07
2023-08-10T04:11:24.290Z,5.50
2023-08-10T04:13:53.286Z,4.87
2023-08-10T04:16:20.936Z,5.13
2023-08-10T04:18:48.732Z,5.23
2023-08-10T04:21:16.914Z,4.17
2023-08-10T04:23:44.547Z,4.60
2023-08-10T04:26:12.182Z,5.30
2023-08-10T04:28:39.918Z,5.70
2023-08-10T04:31:09.216Z,4.40
2023-08-10T04:33:36.992Z,4.47
2023-08-10T04:36:04.870Z,4.50
2023-08-10T04:38:32.525Z,5.47
2023-08-10T04:41:00.213Z,4.57
2023-08-10T04:43:29.836Z,5.23
2023-08-10T04:45:57.659Z,5.00
2023-08-10T04:48:26.729Z,5.47
2023-08-10T04:50:54.395Z,5.70
2023-08-10T04:53:22.389Z,4.87
2023-08-10T04:55:49.998Z,5.33
2023-08-10T04:58:17.629Z,5.37
2023-08-10T05:00:45.689Z,5.03
2023-08-10T05:03:13.511Z,5.10
2023-08-10T05:05:43.247Z,5.37
2023-08-10T05:08:11.021Z,4.97
2023-08-10T05:10:38.914Z,5.13
2023-08-10T05:13:06.663Z,5.20
2023-08-10T05:15:34.300Z,5.47
2023-08-10T05:18:03.203Z,5.30
2023-08-10T05:20:30.988Z,5.87
2023-08-10T05:22:59.970Z,5.97
2023-08-10T05:25:27.693Z,6.90
2023-08-10T05:27:55.280Z,6.10
2023-08-10T05:30:22.886Z,8.30
2023-08-10T05:32:50.582Z,8.03
2023-08-10T05:35:19.060Z,10.00
2023-08-10T05:37:46.745Z,7.90
2023-08-10T05:40:15.889Z,8.00
2023-08-10T05:42:44.197Z,7.43
2023-08-10T05:45:16.373Z,6.77
2023-08-10T05:47:45.231Z,6.00
2023-08-10T05:50:13.293Z,5.43
2023-08-10T05:52:40.929Z,5.90
2023-08-10T05:55:09.713Z,6.07
2023-08-10T05:57:39.642Z,5.30
2023-08-10T06:00:08.458Z,5.10
2023-08-10T06:02:36.229Z,5.43
2023-08-10T06:05:07.353Z,5.07
2023-08-10T06:07:34.992Z,5.83
2023-08-10T06:10:02.644Z,5.97
2023-08-10T06:12:30.223Z,5.87
2023-08-10T06:14:59.149Z,5.77
2023-08-10T06:17:27.181Z,6.10
2023-08-10T06:19:59.252Z,6.70
2023-08-10T06:22:28.229Z,6.60
2023-08-10T06:24:55.866Z,6.60
2023-08-10T06:27:23.495Z,6.23
2023-08-10T06:29:51.121Z,6.60
2023-08-10T06:32:20.315Z,7.00
2023-08-10T06:34:48.356Z,7.40
2023-08-10T06:37:17.840Z,9.80
2023-08-10T06:39:47.424Z,6.90
2023-08-10T06:42:15.162Z,7.73
2023-08-10T06:44:43.325Z,7.07
2023-08-10T06:47:11.701Z,7.00
2023-08-10T06:49:41.023Z,7.37
2023-08-10T06:52:08.654Z,6.90
2023-08-10T06:54:36.283Z,7.17
2023-08-10T06:57:04.257Z,7.23
2023-08-10T07:00:33.025Z,7.97
2023-08-10T07:02:21.445Z,6.80
2023-08-10T07:04:50.702Z,6.60
2023-08-10T07:07:18.288Z,8.10
2023-08-10T07:09:47.762Z,7.43
2023-08-10T07:12:15.392Z,7.23
2023-08-10T07:14:43.018Z,7.77
2023-08-10T07:17:10.782Z,7.30
2023-08-10T07:19:38.416Z,7.20
2023-08-10T07:22:07.578Z,7.43
2023-08-10T07:24:35.303Z,7.23
2023-08-10T07:27:06.200Z,8.43
2023-08-10T07:29:37.132Z,7.70
2023-08-10T07:32:05.369Z,8.67
2023-08-10T07:34:33.237Z,8.27
2023-08-10T07:37:00.875Z,7.73
2023-08-10T07:39:30.415Z,8.17
2023-08-10T07:41:57.989Z,7.90
2023-08-10T07:44:25.610Z,8.17
2023-08-10T07:46:53.307Z,8.80
2023-08-10T07:49:21.203Z,7.53
2023-08-10T07:51:48.865Z,8.53
2023-08-10T07:54:16.524Z,7.97
2023-08-10T07:56:45.603Z,8.57
2023-08-10T07:59:13.350Z,8.50
2023-08-10T08:01:42.270Z,7.80
2023-08-10T08:04:10.167Z,8.50
2023-08-10T08:06:38.000Z,8.87
2023-08-10T08:09:07.872Z,8.50
2023-08-10T08:11:36.806Z,9.03
2023-08-10T08:14:06.018Z,7.87
2023-08-10T08:16:33.880Z,7.80
2023-08-10T08:19:01.642Z,8.43
2023-08-10T08:21:30.820Z,11.67
2023-08-10T08:23:59.498Z,11.10
2023-08-10T08:26:27.788Z,8.07
2023-08-10T08:28:55.602Z,8.00
2023-08-10T08:31:24.628Z,7.37
2023-08-10T08:33:52.963Z,7.97
2023-08-10T08:36:20.698Z,7.23
2023-08-10T08:38:48.372Z,7.87
2023-08-10T08:41:19.157Z,7.60
2023-08-10T08:43:48.294Z,6.60
2023-08-10T08:46:16.301Z,7.17
2023-08-10T08:48:45.627Z,7.03
2023-08-10T08:51:13.397Z,7.70
2023-08-10T08:53:41.295Z,6.30
2023-08-10T08:56:09.196Z,6.53
2023-08-10T08:58:36.817Z,6.80
2023-08-10T09:01:05.546Z,6.73
2023-08-10T09:03:33.628Z,7.20
2023-08-10T09:06:03.131Z,7.83
2023-08-10T09:08:32.669Z,7.10
2023-08-10T09:11:00.783Z,7.30
2023-08-10T09:13:28.560Z,7.30
2023-08-10T09:16:07.085Z,7.37
2023-08-10T09:18:35.277Z,7.90
2023-08-10T09:21:14.571Z,6.37
2023-08-10T09:23:43.072Z,6.37
2023-08-10T09:26:11.249Z,7.10
2023-08-10T09:28:39.559Z,8.07
2023-08-10T09:31:08.582Z,7.47
2023-08-10T09:33:37.447Z,7.10
2023-08-10T09:36:06.791Z,7.17
2023-08-10T09:38:36.152Z,6.87
2023-08-10T09:41:11.940Z,7.50
2023-08-10T09:43:39.796Z,7.00
2023-08-10T09:46:08.393Z,7.40
2023-08-10T09:48:36.712Z,6.40
2023-08-10T09:51:05.555Z,6.30
2023-08-10T09:53:35.246Z,7.93
2023-08-10T09:56:02.947Z,6.30
2023-08-10T09:58:31.719Z,6.10
2023-08-10T10:00:59.335Z,7.00
2023-08-10T10:03:30.824Z,6.37
2023-08-10T10:05:58.772Z,6.70
2023-08-10T10:08:27.109Z,6.07
2023-08-10T10:10:58.998Z,5.10
2023-08-10T10:13:27.639Z,6.40
2023-08-10T10:15:56.247Z,5.30
2023-08-10T10:18:24.643Z,4.90
2023-08-10T10:20:52.922Z,5.13
2023-08-10T10:23:22.505Z,4.50
2023-08-10T10:26:02.130Z,4.03
2023-08-10T10:28:31.985Z,2.80
2023-08-10T10:31:09.977Z,2.80
2023-08-10T10:33:39.857Z,3.23
2023-08-10T10:36:22.409Z,3.13
2023-08-10T10:38:56.949Z,2.30
2023-08-10T10:41:33.208Z,1.70
2023-08-10T10:44:02.265Z,1.70
2023-08-10T10:46:42.004Z,1.33
2023-08-10T10:49:13.770Z,1.40
2023-08-10T10:51:54.075Z,1.60
2023-08-10T10:54:21.863Z,1.97
2023-08-10T10:56:50.792Z,2.07
2023-08-10T10:59:18.491Z,2.10
2023-08-10T11:01:48.808Z,1.70
2023-08-10T11:04:16.526Z,1.47
2023-08-10T11:06:44.155Z,1.50
2023-08-10T11:09:14.417Z,1.50
2023-08-10T11:11:42.772Z,1.53
2023-08-10T11:14:12.448Z,1.73
2023-08-10T11:16:43.303Z,1.80
2023-08-10T11:19:12.777Z,1.90
2023-08-10T11:21:40.590Z,2.30
2023-08-10T11:24:09.870Z,1.77
2023-08-10T11:26:38.134Z,2.23
2023-08-10T11:29:06.235Z,1.40
2023-08-10T11:31:43.917Z,1.67
2023-08-10T11:34:21.326Z,1.90
2023-08-10T11:36:49.153Z,1.60
2023-08-10T11:39:16.788Z,1.30
2023-08-10T11:41:46.220Z,1.70
2023-08-10T11:44:24.267Z,1.73
2023-08-10T11:46:53.298Z,1.53
2023-08-10T11:49:21.467Z,1.57
2023-08-10T11:51:49.259Z,1.33
2023-08-10T11:54:16.970Z,1.70
2023-08-10T11:56:46.314Z,1.30
2023-08-10T11:59:15.422Z,1.47
2023-08-10T12:01:47.059Z,1.60
2023-08-10T12:04:20.283Z,1.63
2023-08-10T12:06:48.718Z,1.67
2023-08-10T12:09:17.710Z,1.97
2023-08-10T12:11:49.703Z,1.70
2023-08-10T12:14:20.079Z,2.20
2023-08-10T12:16:47.844Z,1.90
2023-08-10T12:19:17.592Z,1.30
2023-08-10T12:21:46.938Z,1.50
2023-08-10T12:24:14.664Z,1.73
2023-08-10T12:26:43.702Z,6.43
2023-08-10T12:29:14.687Z,4.97
2023-08-10T12:31:42.681Z,1.83
2023-08-10T12:34:10.449Z,3.73
2023-08-10T12:36:39.495Z,1.67
2023-08-10T12:39:08.758Z,2.10
2023-08-10T12:41:36.541Z,1.60
2023-08-10T12:44:04.504Z,1.63
2023-08-10T12:46:32.265Z,1.43
2023-08-10T12:48:59.974Z,1.77
2023-08-10T12:51:27.728Z,1.40
2023-08-10T12:53:56.919Z,1.70
2023-08-10T12:56:24.653Z,1.37
2023-08-10T12:58:52.453Z,1.77
2023-08-10T13:01:20.307Z,1.30
2023-08-10T13:03:47.974Z,1.27
2023-08-10T13:06:15.705Z,1.60
2023-08-10T13:08:43.838Z,1.33
2023-08-10T13:11:12.909Z,1.30
2023-08-10T13:13:41.012Z,1.80
2023-08-10T13:16:08.759Z,1.10
2023-08-10T13:18:36.577Z,1.27
2023-08-10T13:21:04.555Z,1.50
2023-08-10T13:23:32.335Z,1.47
2023-08-10T13:26:00.152Z,1.67
2023-08-10T13:28:29.180Z,1.40
2023-08-10T13:30:56.851Z,1.50
2023-08-10T13:33:24.584Z,1.48
2023-08-10T13:35:52.277Z,1.20
2023-08-10T13:38:20.029Z,1.37
2023-08-10T13:40:47.721Z,1.58
2023-08-10T13:43:15.993Z,1.70
2023-08-10T13:45:45.053Z,1.17
2023-08-10T13:48:12.992Z,1.60
2023-08-10T13:50:40.898Z,1.33
2023-08-10T13:53:09.118Z,1.27
2023-08-10T13:55:36.831Z,1.20
2023-08-10T13:58:06.689Z,1.48
2023-08-10T14:00:34.606Z,0.90
2023-08-10T14:03:08.062Z,1.52
2023-08-10T14:05:36.433Z,1.17
2023-08-10T14:08:04.116Z,1.60
2023-08-10T14:10:31.745Z,1.33
2023-08-10T14:12:59.488Z,1.55
2023-08-10T14:15:27.101Z,1.40
2023-08-10T14:17:55.283Z,1.45
2023-08-10T14:20:24.327Z,1.50
2023-08-10T14:22:52.548Z,1.40
2023-08-10T14:25:20.273Z,1.10
2023-08-10T14:27:49.553Z,1.33
2023-08-10T14:30:17.184Z,1.50
2023-08-10T14:32:44.858Z,1.60
2023-08-10T14:35:12.655Z,1.33
2023-08-10T14:37:41.690Z,1.45
2023-08-10T14:40:09.990Z,1.20
2023-08-10T14:42:37.652Z,1.40
2023-08-10T14:45:07.338Z,1.65
2023-08-10T14:47:37.210Z,1.27
2023-08-10T14:50:06.317Z,1.45
2023-08-10T14:52:34.052Z,1.42
2023-08-10T14:55:16.213Z,1.60
2023-08-10T14:57:48.400Z,1.52
2023-08-10T15:00:18.349Z,1.10
2023-08-10T15:02:47.402Z,1.38
2023-08-10T15:05:16.489Z,1.88
2023-08-10T15:07:44.926Z,1.50
2023-08-10T15:10:14.432Z,1.42
2023-08-10T15:12:42.105Z,1.40
2023-08-10T15:15:11.162Z,1.60
2023-08-10T15:17:38.831Z,1.75
2023-08-10T15:20:09.461Z,1.85
2023-08-10T15:22:37.469Z,1.80
2023-08-10T15:25:07.857Z,1.50
2023-08-10T15:27:38.032Z,1.63
2023-08-10T15:30:07.224Z,1.45
2023-08-10T15:32:34.875Z,1.43
2023-08-10T15:35:02.534Z,2.20
2023-08-10T15:37:33.397Z,1.63
2023-08-10T15:40:01.178Z,1.50
2023-08-10T15:42:28.872Z,1.83
2023-08-10T15:44:59.044Z,1.70
2023-08-10T15:47:26.701Z,2.20
2023-08-10T15:49:54.573Z,2.40
2023-08-10T15:52:22.164Z,1.50
2023-08-10T15:54:49.776Z,1.47
2023-08-10T15:57:17.450Z,1.73
2023-08-10T15:59:45.107Z,1.90
2023-08-10T16:02:14.901Z,1.53
2023-08-10T16:04:42.950Z,2.67
2023-08-10T16:07:10.574Z,1.87
2023-08-10T16:09:38.256Z,2.13
2023-08-10T16:12:08.136Z,1.87
2023-08-10T16:14:36.343Z,1.80
2023-08-10T16:17:05.263Z,2.00
2023-08-10T16:19:34.233Z,1.83
2023-08-10T16:22:01.900Z,1.90
2023-08-10T16:24:29.576Z,1.90
2023-08-10T16:26:57.234Z,1.70
2023-08-10T16:29:24.957Z,1.90
2023-08-10T16:31:52.636Z,2.10
2023-08-10T16:34:20.350Z,1.87
2023-08-10T16:36:49.865Z,1.60
2023-08-10T16:39:17.515Z,1.63
2023-08-10T16:41:45.149Z,1.87
2023-08-10T16:44:12.792Z,2.87
2023-08-10T16:46:40.417Z,2.50
2023-08-10T16:49:08.281Z,1.70
2023-08-10T16:51:36.469Z,1.93
2023-08-10T16:54:05.972Z,2.00
2023-08-10T16:56:35.105Z,2.03
2023-08-10T16:59:02.705Z,2.40
2023-08-10T17:01:30.400Z,2.00
2023-08-10T17:03:58.409Z,1.67
2023-08-10T17:06:26.027Z,2.17
2023-08-10T17:08:53.848Z,1.93
2023-08-10T17:11:22.989Z,1.70
2023-08-10T17:13:50.808Z,2.23
2023-08-10T17:16:18.647Z,2.60
2023-08-10T17:18:46.310Z,3.70
2023-08-10T17:21:13.910Z,2.80
2023-08-10T17:23:44.358Z,3.20
2023-08-10T17:26:11.953Z,3.47
2023-08-10T17:28:40.863Z,3.27
2023-08-10T17:31:08.627Z,2.70
2023-08-10T17:33:39.158Z,2.60
2023-08-10T17:36:07.159Z,2.47
2023-08-10T17:38:35.430Z,2.43
2023-08-10T17:41:03.216Z,2.07
2023-08-10T17:43:31.141Z,2.20
2023-08-10T17:46:00.180Z,2.17
2023-08-10T17:48:27.936Z,2.03
2023-08-10T17:50:55.565Z,2.30
2023-08-10T17:53:23.327Z,4.30
2023-08-10T17:55:52.726Z,3.23
2023-08-10T17:58:20.458Z,2.20
2023-08-10T18:00:48.097Z,2.20
2023-08-10T18:03:18.029Z,2.90
2023-08-10T18:05:45.904Z,2.83
2023-08-10T18:08:13.555Z,2.37
2023-08-10T18:10:41.252Z,2.60
2023-08-10T18:13:08.874Z,2.30
2023-08-10T18:15:36.509Z,2.37
2023-08-10T18:18:04.306Z,2.40
2023-08-10T18:20:33.313Z,3.50
2023-08-10T18:23:00.992Z,2.63
2023-08-10T18:25:28.842Z,2.53
2023-08-10T18:27:56.737Z,2.50
2023-08-10T18:30:24.545Z,2.50
2023-08-10T18:32:52.200Z,2.13
2023-08-10T18:35:20.072Z,2.53
2023-08-10T18:37:49.047Z,2.80
2023-08-10T18:40:16.828Z,2.67
2023-08-10T18:42:45.603Z,2.67
2023-08-10T18:45:13.203Z,2.13
2023-08-10T18:47:43.895Z,2.30
2023-08-10T18:50:12.183Z,2.80
2023-08-10T18:52:40.032Z,2.33
2023-08-10T18:55:10.759Z,2.67
2023-08-10T18:57:39.703Z,2.47
2023-08-10T19:00:09.247Z,3.00
2023-08-10T19:02:36.953Z,3.00
2023-08-10T19:05:05.546Z,4.47
2023-08-10T19:07:33.158Z,3.10
2023-08-10T19:10:00.865Z,2.87
2023-08-10T19:12:30.045Z,5.97
2023-08-10T19:14:57.736Z,5.00
2023-08-10T19:17:25.671Z,5.10
2023-08-10T19:19:53.389Z,4.97
2023-08-10T19:22:21.229Z,4.00
2023-08-10T19:24:48.891Z,2.90
2023-08-10T19:27:20.830Z,3.33
2023-08-10T19:29:49.873Z,3.83
2023-08-10T19:32:18.083Z,3.60
2023-08-10T19:34:46.047Z,4.57
2023-08-10T19:37:13.713Z,4.47
2023-08-10T19:39:41.567Z,3.90
2023-08-10T19:42:09.466Z,3.13
2023-08-10T19:44:37.395Z,3.13
2023-08-10T19:47:07.110Z,2.77
2023-08-10T19:49:34.854Z,3.73
2023-08-10T19:52:04.169Z,3.97
2023-08-10T19:54:32.464Z,3.57
2023-08-10T19:57:00.182Z,3.20
2023-08-10T19:59:27.843Z,3.53
2023-08-10T20:01:55.839Z,3.23
2023-08-10T20:04:24.965Z,3.20
2023-08-10T20:06:53.248Z,3.27
2023-08-10T20:09:21.167Z,3.33
2023-08-10T20:11:49.191Z,3.47
2023-08-10T20:14:16.919Z,3.77
2023-08-10T20:16:44.565Z,3.97
2023-08-10T20:19:12.172Z,3.37
2023-08-10T20:21:41.259Z,3.43
2023-08-10T20:24:09.455Z,3.17
2023-08-10T20:26:37.568Z,3.10
2023-08-10T20:29:05.836Z,3.30
2023-08-10T20:31:33.601Z,2.90
2023-08-10T20:34:01.367Z,3.00
2023-08-10T20:36:30.213Z,4.03
2023-08-10T20:38:59.509Z,4.50
2023-08-10T20:41:27.957Z,5.80
2023-08-10T20:43:55.641Z,4.63
2023-08-10T20:46:24.393Z,4.20
2023-08-10T20:48:53.440Z,4.40
2023-08-10T20:51:22.084Z,4.40
2023-08-10T20:53:51.656Z,5.03
2023-08-10T20:56:22.006Z,3.80
2023-08-10T20:58:50.951Z,4.23
2023-08-10T21:01:18.912Z,3.60
2023-08-10T21:03:46.629Z,3.57
2023-08-10T21:06:15.131Z,3.87
2023-08-10T21:08:45.764Z,3.73
2023-08-10T21:11:14.048Z,3.03
2023-08-10T21:13:43.005Z,4.07
2023-08-10T21:16:11.816Z,3.90
2023-08-10T21:18:39.693Z,3.97
2023-08-10T21:21:07.272Z,4.77
2023-08-10T21:23:34.906Z,3.90
2023-08-10T21:26:02.545Z,4.43
2023-08-10T21:28:30.223Z,4.03
2023-08-10T21:30:59.186Z,4.23
2023-08-10T21:33:26.883Z,4.17
2023-08-10T21:35:54.541Z,4.87
2023-08-10T21:38:22.200Z,4.30
2023-08-10T21:40:49.790Z,4.77
2023-08-10T21:43:17.480Z,4.57
2023-08-10T21:45:45.158Z,4.13
2023-08-10T21:48:14.123Z,4.10
2023-08-10T21:50:41.743Z,4.17
2023-08-10T21:53:09.416Z,3.87
2023-08-10T21:55:37.181Z,3.97
2023-08-10T21:58:05.034Z,4.03
2023-08-10T22:00:32.683Z,4.30
2023-08-10T22:03:00.362Z,3.97
2023-08-10T22:05:29.562Z,3.70
2023-08-10T22:07:57.634Z,4.03
2023-08-10T22:10:26.455Z,4.17
2023-08-10T22:12:54.089Z,3.90
2023-08-10T22:15:21.901Z,3.80
2023-08-10T22:17:49.658Z,4.30
2023-08-10T22:20:18.082Z,4.10
2023-08-10T22:23:01.967Z,4.77
2023-08-10T22:25:32.598Z,4.77
2023-08-10T22:28:01.485Z,4.47
2023-08-10T22:30:29.352Z,4.63
2023-08-10T22:32:57.073Z,4.83
2023-08-10T22:35:25.186Z,5.20
2023-08-10T22:37:54.176Z,4.53
2023-08-10T22:40:21.868Z,4.20
2023-08-10T22:42:49.535Z,5.47
2023-08-10T22:45:17.347Z,4.23
2023-08-10T22:47:45.118Z,4.10
2023-08-10T22:50:14.553Z,4.53
2023-08-10T22:52:42.921Z,5.00
2023-08-10T22:55:12.626Z,3.90
2023-08-10T22:57:40.653Z,4.30
2023-08-10T23:00:11.058Z,4.47
2023-08-10T23:02:38.783Z,4.50
2023-08-10T23:05:07.262Z,4.70
2023-08-10T23:07:34.939Z,4.50
2023-08-10T23:10:05.793Z,4.50
2023-08-10T23:12:34.843Z,4.90
2023-08-10T23:15:02.561Z,4.63
2023-08-10T23:17:30.556Z,4.80
2023-08-10T23:19:58.601Z,4.47
2023-08-10T23:22:26.269Z,4.77
2023-08-10T23:24:53.925Z,4.80
2023-08-10T23:27:21.581Z,4.63
2023-08-10T23:29:50.541Z,4.40
2023-08-10T23:32:18.624Z,5.00
2023-08-10T23:34:46.553Z,4.50
2023-08-10T23:37:14.620Z,4.73
2023-08-10T23:39:42.237Z,4.13
2023-08-10T23:42:09.966Z,4.70
2023-08-10T23:44:37.593Z,4.37
2023-08-10T23:47:15.822Z,4.83
2023-08-10T23:49:44.809Z,4.73
2023-08-10T23:52:12.638Z,4.57
2023-08-10T23:54:40.327Z,5.77
2023-08-10T23:57:09.013Z,5.60
2023-08-10T23:59:38.135Z,4.40
